sensor_id;sensor_type;location;lat;lon;timestamp;P1;durP1;ratioP1;P2;durP2;ratioP2
35010;SDS011;21205;37.378;127.098;2023-03-13T00:01:00;4.70;;;1.50;;
35010;SDS011;21205;37.378;127.098;2023-03-13T00:03:48;2.15;;;1.27;;
35010;SDS011;21205;37.378;127.098;2023-03-13T00:06:25;2.72;;;1.38;;
35010;SDS011;21205;37.378;127.098;2023-03-13T00:11:39;4.70;;;1.75;;
35010;SDS011;21205;37.378;127.098;2023-03-13T00:14:19;1.80;;;1.38;;
35010;SDS011;21205;37.378;127.098;2023-03-13T00:16:49;5.20;;;1.60;;
35010;SDS011;21205;37.378;127.098;2023-03-13T00:19:23;3.78;;;1.60;;
35010;SDS011;21205;37.378;127.098;2023-03-13T00:22:02;3.67;;;1.40;;
35010;SDS011;21205;37.378;127.098;2023-03-13T00:27:42;3.90;;;1.60;;
35010;SDS011;21205;37.378;127.098;2023-03-13T00:30:18;2.83;;;1.50;;
35010;SDS011;21205;37.378;127.098;2023-03-13T00:33:00;2.15;;;1.60;;
35010;SDS011;21205;37.378;127.098;2023-03-13T00:35:33;2.15;;;1.55;;
35010;SDS011;21205;37.378;127.098;2023-03-13T00:38:09;6.22;;;1.67;;
35010;SDS011;21205;37.378;127.098;2023-03-13T00:40:39;4.65;;;1.60;;
35010;SDS011;21205;37.378;127.098;2023-03-13T00:43:11;9.10;;;2.00;;
35010;SDS011;21205;37.378;127.098;2023-03-13T00:45:41;3.00;;;1.73;;
35010;SDS011;21205;37.378;127.098;2023-03-13T00:48:11;3.53;;;1.63;;
35010;SDS011;21205;37.378;127.098;2023-03-13T00:50:40;2.97;;;1.83;;
35010;SDS011;21205;37.378;127.098;2023-03-13T00:53:10;4.03;;;1.80;;
35010;SDS011;21205;37.378;127.098;2023-03-13T00:58:27;4.65;;;1.63;;
35010;SDS011;21205;37.378;127.098;2023-03-13T01:01:07;3.00;;;1.80;;
35010;SDS011;21205;37.378;127.098;2023-03-13T01:03:43;2.88;;;2.10;;
35010;SDS011;21205;37.378;127.098;2023-03-13T01:06:16;2.92;;;1.80;;
35010;SDS011;21205;37.378;127.098;2023-03-13T01:08:48;9.33;;;1.83;;
35010;SDS011;21205;37.378;127.098;2023-03-13T01:11:20;4.38;;;1.42;;
35010;SDS011;21205;37.378;127.098;2023-03-13T01:13:55;3.72;;;1.73;;
35010;SDS011;21205;37.378;127.098;2023-03-13T01:16:32;2.22;;;1.63;;
35010;SDS011;21205;37.378;127.098;2023-03-13T01:19:04;1.90;;;1.38;;
35010;SDS011;21205;37.378;127.098;2023-03-13T01:21:39;2.58;;;1.60;;
35010;SDS011;21205;37.378;127.098;2023-03-13T01:24:12;2.50;;;1.20;;
35010;SDS011;21205;37.378;127.098;2023-03-13T01:26:42;6.25;;;2.17;;
35010;SDS011;21205;37.378;127.098;2023-03-13T01:29:12;2.17;;;1.60;;
35010;SDS011;21205;37.378;127.098;2023-03-13T01:31:42;2.13;;;1.50;;
35010;SDS011;21205;37.378;127.098;2023-03-13T01:34:12;2.97;;;1.65;;
35010;SDS011;21205;37.378;127.098;2023-03-13T01:36:41;3.83;;;1.40;;
35010;SDS011;21205;37.378;127.098;2023-03-13T01:39:11;3.65;;;1.60;;
35010;SDS011;21205;37.378;127.098;2023-03-13T01:41:43;2.53;;;1.95;;
35010;SDS011;21205;37.378;127.098;2023-03-13T01:47:31;2.40;;;1.63;;
35010;SDS011;21205;37.378;127.098;2023-03-13T01:50:02;3.40;;;1.67;;
35010;SDS011;21205;37.378;127.098;2023-03-13T01:52:33;4.00;;;1.60;;
35010;SDS011;21205;37.378;127.098;2023-03-13T01:55:04;6.50;;;1.52;;
35010;SDS011;21205;37.378;127.098;2023-03-13T01:57:45;2.45;;;1.60;;
35010;SDS011;21205;37.378;127.098;2023-03-13T02:00:19;2.65;;;1.67;;
35010;SDS011;21205;37.378;127.098;2023-03-13T02:02:57;4.30;;;1.70;;
35010;SDS011;21205;37.378;127.098;2023-03-13T02:05:38;6.22;;;1.23;;
35010;SDS011;21205;37.378;127.098;2023-03-13T02:11:00;2.50;;;1.50;;
35010;SDS011;21205;37.378;127.098;2023-03-13T02:14:26;3.03;;;1.40;;
35010;SDS011;21205;37.378;127.098;2023-03-13T02:16:58;3.10;;;1.58;;
35010;SDS011;21205;37.378;127.098;2023-03-13T02:27:41;2.60;;;1.38;;
35010;SDS011;21205;37.378;127.098;2023-03-13T02:30:22;2.85;;;1.55;;
35010;SDS011;21205;37.378;127.098;2023-03-13T02:32:55;4.10;;;1.10;;
35010;SDS011;21205;37.378;127.098;2023-03-13T02:35:39;2.33;;;1.58;;
35010;SDS011;21205;37.378;127.098;2023-03-13T02:38:20;3.33;;;1.45;;
35010;SDS011;21205;37.378;127.098;2023-03-13T02:40:56;2.50;;;1.55;;
35010;SDS011;21205;37.378;127.098;2023-03-13T02:43:37;3.55;;;1.35;;
35010;SDS011;21205;37.378;127.098;2023-03-13T02:46:14;2.90;;;1.52;;
35010;SDS011;21205;37.378;127.098;2023-03-13T02:49:41;2.22;;;1.30;;
35010;SDS011;21205;37.378;127.098;2023-03-13T02:52:27;2.40;;;1.38;;
35010;SDS011;21205;37.378;127.098;2023-03-13T02:55:14;1.70;;;1.33;;
35010;SDS011;21205;37.378;127.098;2023-03-13T02:58:23;5.75;;;1.38;;
35010;SDS011;21205;37.378;127.098;2023-03-13T03:01:16;2.65;;;1.48;;
35010;SDS011;21205;37.378;127.098;2023-03-13T03:03:48;1.45;;;1.35;;
35010;SDS011;21205;37.378;127.098;2023-03-13T03:06:25;5.60;;;2.13;;
35010;SDS011;21205;37.378;127.098;2023-03-13T03:08:58;5.85;;;1.42;;
35010;SDS011;21205;37.378;127.098;2023-03-13T03:11:27;1.77;;;1.35;;
35010;SDS011;21205;37.378;127.098;2023-03-13T03:14:00;1.83;;;1.50;;
35010;SDS011;21205;37.378;127.098;2023-03-13T03:16:33;7.07;;;1.85;;
35010;SDS011;21205;37.378;127.098;2023-03-13T03:19:15;2.28;;;1.30;;
35010;SDS011;21205;37.378;127.098;2023-03-13T03:21:48;3.25;;;1.58;;
35010;SDS011;21205;37.378;127.098;2023-03-13T03:24:18;6.88;;;1.20;;
35010;SDS011;21205;37.378;127.098;2023-03-13T03:26:48;2.65;;;1.08;;
35010;SDS011;21205;37.378;127.098;2023-03-13T03:29:18;2.22;;;1.10;;
35010;SDS011;21205;37.378;127.098;2023-03-13T03:31:48;2.35;;;1.20;;
35010;SDS011;21205;37.378;127.098;2023-03-13T03:34:17;2.17;;;1.33;;
35010;SDS011;21205;37.378;127.098;2023-03-13T03:36:48;3.22;;;1.48;;
35010;SDS011;21205;37.378;127.098;2023-03-13T03:39:26;5.03;;;1.75;;
35010;SDS011;21205;37.378;127.098;2023-03-13T03:41:57;2.97;;;1.42;;
35010;SDS011;21205;37.378;127.098;2023-03-13T03:44:31;3.78;;;1.45;;
35010;SDS011;21205;37.378;127.098;2023-03-13T03:47:03;1.98;;;1.10;;
35010;SDS011;21205;37.378;127.098;2023-03-13T03:49:36;2.72;;;1.55;;
35010;SDS011;21205;37.378;127.098;2023-03-13T03:52:06;2.30;;;1.33;;
35010;SDS011;21205;37.378;127.098;2023-03-13T03:54:36;2.33;;;1.20;;
35010;SDS011;21205;37.378;127.098;2023-03-13T03:57:06;3.22;;;1.40;;
35010;SDS011;21205;37.378;127.098;2023-03-13T03:59:35;5.97;;;1.80;;
35010;SDS011;21205;37.378;127.098;2023-03-13T04:02:05;4.18;;;1.75;;
35010;SDS011;21205;37.378;127.098;2023-03-13T04:04:38;4.20;;;1.48;;
35010;SDS011;21205;37.378;127.098;2023-03-13T04:07:07;2.15;;;1.40;;
35010;SDS011;21205;37.378;127.098;2023-03-13T04:09:40;2.28;;;1.45;;
35010;SDS011;21205;37.378;127.098;2023-03-13T04:12:10;3.60;;;1.55;;
35010;SDS011;21205;37.378;127.098;2023-03-13T04:14:42;2.13;;;1.38;;
35010;SDS011;21205;37.378;127.098;2023-03-13T04:17:15;1.58;;;1.40;;
35010;SDS011;21205;37.378;127.098;2023-03-13T04:19:45;5.20;;;1.60;;
35010;SDS011;21205;37.378;127.098;2023-03-13T04:22:17;2.45;;;1.40;;
35010;SDS011;21205;37.378;127.098;2023-03-13T04:24:51;6.18;;;1.60;;
35010;SDS011;21205;37.378;127.098;2023-03-13T04:27:32;6.95;;;1.80;;
35010;SDS011;21205;37.378;127.098;2023-03-13T04:30:07;3.35;;;1.40;;
35010;SDS011;21205;37.378;127.098;2023-03-13T04:32:43;1.92;;;1.50;;
35010;SDS011;21205;37.378;127.098;2023-03-13T04:35:13;2.97;;;1.50;;
35010;SDS011;21205;37.378;127.098;2023-03-13T04:37:43;3.22;;;1.30;;
35010;SDS011;21205;37.378;127.098;2023-03-13T04:40:15;6.18;;;1.63;;
35010;SDS011;21205;37.378;127.098;2023-03-13T04:42:48;2.28;;;1.38;;
35010;SDS011;21205;37.378;127.098;2023-03-13T04:45:20;3.00;;;1.35;;
35010;SDS011;21205;37.378;127.098;2023-03-13T04:47:50;5.00;;;1.60;;
35010;SDS011;21205;37.378;127.098;2023-03-13T04:50:23;4.20;;;1.55;;
35010;SDS011;21205;37.378;127.098;2023-03-13T04:52:53;5.15;;;1.60;;
35010;SDS011;21205;37.378;127.098;2023-03-13T04:55:22;1.95;;;1.50;;
35010;SDS011;21205;37.378;127.098;2023-03-13T04:57:55;3.20;;;1.40;;
35010;SDS011;21205;37.378;127.098;2023-03-13T05:00:30;3.95;;;1.90;;
35010;SDS011;21205;37.378;127.098;2023-03-13T05:03:03;3.73;;;1.70;;
35010;SDS011;21205;37.378;127.098;2023-03-13T05:05:54;4.70;;;2.00;;
35010;SDS011;21205;37.378;127.098;2023-03-13T05:08:26;6.18;;;2.42;;
35010;SDS011;21205;37.378;127.098;2023-03-13T05:10:57;5.00;;;2.50;;
35010;SDS011;21205;37.378;127.098;2023-03-13T05:13:29;6.03;;;2.90;;
35010;SDS011;21205;37.378;127.098;2023-03-13T05:16:16;8.02;;;3.88;;
35010;SDS011;21205;37.378;127.098;2023-03-13T05:18:49;5.97;;;2.37;;
35010;SDS011;21205;37.378;127.098;2023-03-13T05:21:19;10.32;;;2.42;;
35010;SDS011;21205;37.378;127.098;2023-03-13T05:23:49;5.90;;;2.55;;
35010;SDS011;21205;37.378;127.098;2023-03-13T05:26:18;6.70;;;2.10;;
35010;SDS011;21205;37.378;127.098;2023-03-13T05:28:48;15.55;;;2.72;;
35010;SDS011;21205;37.378;127.098;2023-03-13T05:31:18;5.97;;;2.42;;
35010;SDS011;21205;37.378;127.098;2023-03-13T05:33:50;7.28;;;2.83;;
35010;SDS011;21205;37.378;127.098;2023-03-13T05:36:19;11.18;;;2.63;;
35010;SDS011;21205;37.378;127.098;2023-03-13T05:38:49;6.50;;;2.40;;
35010;SDS011;21205;37.378;127.098;2023-03-13T05:41:19;9.23;;;2.58;;
35010;SDS011;21205;37.378;127.098;2023-03-13T05:43:53;12.02;;;2.50;;
35010;SDS011;21205;37.378;127.098;2023-03-13T05:46:35;6.28;;;2.47;;
35010;SDS011;21205;37.378;127.098;2023-03-13T05:49:20;3.80;;;2.63;;
35010;SDS011;21205;37.378;127.098;2023-03-13T05:51:50;4.97;;;2.50;;
35010;SDS011;21205;37.378;127.098;2023-03-13T05:54:26;7.72;;;2.28;;
35010;SDS011;21205;37.378;127.098;2023-03-13T05:57:06;4.35;;;2.22;;
35010;SDS011;21205;37.378;127.098;2023-03-13T05:59:36;4.65;;;2.13;;
35010;SDS011;21205;37.378;127.098;2023-03-13T06:02:14;4.53;;;2.10;;
35010;SDS011;21205;37.378;127.098;2023-03-13T06:04:56;4.80;;;1.80;;
35010;SDS011;21205;37.378;127.098;2023-03-13T06:07:26;3.83;;;1.95;;
35010;SDS011;21205;37.378;127.098;2023-03-13T06:10:06;5.32;;;1.60;;
35010;SDS011;21205;37.378;127.098;2023-03-13T06:12:36;5.43;;;1.63;;
35010;SDS011;21205;37.378;127.098;2023-03-13T06:15:26;2.58;;;1.80;;
35010;SDS011;21205;37.378;127.098;2023-03-13T06:17:59;4.50;;;1.67;;
35010;SDS011;21205;37.378;127.098;2023-03-13T06:20:30;5.40;;;1.95;;
35010;SDS011;21205;37.378;127.098;2023-03-13T06:23:00;2.88;;;1.42;;
35010;SDS011;21205;37.378;127.098;2023-03-13T06:25:30;2.60;;;1.58;;
35010;SDS011;21205;37.378;127.098;2023-03-13T06:28:06;4.78;;;1.70;;
35010;SDS011;21205;37.378;127.098;2023-03-13T06:30:36;3.75;;;1.55;;
35010;SDS011;21205;37.378;127.098;2023-03-13T06:33:05;4.10;;;1.63;;
35010;SDS011;21205;37.378;127.098;2023-03-13T06:35:38;3.65;;;1.80;;
35010;SDS011;21205;37.378;127.098;2023-03-13T06:38:24;5.68;;;1.73;;
35010;SDS011;21205;37.378;127.098;2023-03-13T06:40:55;2.40;;;1.50;;
35010;SDS011;21205;37.378;127.098;2023-03-13T06:43:26;3.50;;;2.08;;
35010;SDS011;21205;37.378;127.098;2023-03-13T06:45:56;4.18;;;2.15;;
35010;SDS011;21205;37.378;127.098;2023-03-13T06:48:30;4.20;;;2.08;;
35010;SDS011;21205;37.378;127.098;2023-03-13T06:51:00;3.05;;;1.70;;
35010;SDS011;21205;37.378;127.098;2023-03-13T06:53:35;6.22;;;1.80;;
35010;SDS011;21205;37.378;127.098;2023-03-13T06:56:14;3.47;;;1.60;;
35010;SDS011;21205;37.378;127.098;2023-03-13T06:58:47;6.07;;;1.30;;
35010;SDS011;21205;37.378;127.098;2023-03-13T07:01:21;3.85;;;1.90;;
35010;SDS011;21205;37.378;127.098;2023-03-13T07:04:00;2.42;;;1.38;;
35010;SDS011;21205;37.378;127.098;2023-03-13T07:06:30;2.58;;;1.50;;
35010;SDS011;21205;37.378;127.098;2023-03-13T07:09:00;3.53;;;1.50;;
35010;SDS011;21205;37.378;127.098;2023-03-13T07:11:30;3.65;;;1.73;;
35010;SDS011;21205;37.378;127.098;2023-03-13T07:16:43;1.75;;;1.50;;
35010;SDS011;21205;37.378;127.098;2023-03-13T07:19:14;3.60;;;1.83;;
35010;SDS011;21205;37.378;127.098;2023-03-13T07:21:46;2.37;;;1.63;;
35010;SDS011;21205;37.378;127.098;2023-03-13T07:24:17;1.85;;;1.35;;
35010;SDS011;21205;37.378;127.098;2023-03-13T07:26:47;3.72;;;1.65;;
35010;SDS011;21205;37.378;127.098;2023-03-13T07:29:35;8.68;;;1.75;;
35010;SDS011;21205;37.378;127.098;2023-03-13T07:32:35;4.75;;;1.75;;
35010;SDS011;21205;37.378;127.098;2023-03-13T07:35:48;3.60;;;1.55;;
35010;SDS011;21205;37.378;127.098;2023-03-13T07:42:43;3.95;;;1.60;;
35010;SDS011;21205;37.378;127.098;2023-03-13T07:49:23;4.80;;;1.75;;
35010;SDS011;21205;37.378;127.098;2023-03-13T07:52:22;2.45;;;1.30;;
35010;SDS011;21205;37.378;127.098;2023-03-13T08:07:32;4.15;;;1.25;;
35010;SDS011;21205;37.378;127.098;2023-03-13T08:11:10;3.35;;;1.42;;
35010;SDS011;21205;37.378;127.098;2023-03-13T08:18:05;5.25;;;1.50;;
35010;SDS011;21205;37.378;127.098;2023-03-13T08:29:27;5.80;;;1.27;;
35010;SDS011;21205;37.378;127.098;2023-03-13T08:50:57;1.42;;;1.33;;
35010;SDS011;21205;37.378;127.098;2023-03-13T08:54:27;2.55;;;1.30;;
35010;SDS011;21205;37.378;127.098;2023-03-13T09:01:01;2.63;;;1.30;;
35010;SDS011;21205;37.378;127.098;2023-03-13T09:04:28;3.13;;;1.23;;
35010;SDS011;21205;37.378;127.098;2023-03-13T09:08:01;3.65;;;1.30;;
35010;SDS011;21205;37.378;127.098;2023-03-13T09:11:02;2.53;;;1.40;;
35010;SDS011;21205;37.378;127.098;2023-03-13T09:14:46;2.08;;;1.30;;
35010;SDS011;21205;37.378;127.098;2023-03-13T09:18:18;2.10;;;1.10;;
35010;SDS011;21205;37.378;127.098;2023-03-13T09:21:29;1.58;;;1.15;;
35010;SDS011;21205;37.378;127.098;2023-03-13T09:24:35;1.50;;;1.27;;
35010;SDS011;21205;37.378;127.098;2023-03-13T09:27:47;3.22;;;1.55;;
35010;SDS011;21205;37.378;127.098;2023-03-13T09:30:48;2.17;;;1.40;;
35010;SDS011;21205;37.378;127.098;2023-03-13T09:33:57;2.92;;;1.40;;
35010;SDS011;21205;37.378;127.098;2023-03-13T09:37:18;2.22;;;1.20;;
35010;SDS011;21205;37.378;127.098;2023-03-13T09:40:46;3.45;;;1.60;;
35010;SDS011;21205;37.378;127.098;2023-03-13T09:44:10;3.10;;;1.35;;
35010;SDS011;21205;37.378;127.098;2023-03-13T10:01:15;1.83;;;1.38;;
35010;SDS011;21205;37.378;127.098;2023-03-13T10:04:31;2.33;;;1.35;;
35010;SDS011;21205;37.378;127.098;2023-03-13T10:07:13;2.05;;;1.50;;
35010;SDS011;21205;37.378;127.098;2023-03-13T10:09:43;6.90;;;2.15;;
35010;SDS011;21205;37.378;127.098;2023-03-13T10:12:23;3.85;;;1.67;;
35010;SDS011;21205;37.378;127.098;2023-03-13T10:14:59;2.38;;;1.35;;
35010;SDS011;21205;37.378;127.098;2023-03-13T10:17:47;3.78;;;1.50;;
35010;SDS011;21205;37.378;127.098;2023-03-13T10:20:24;2.50;;;1.52;;
35010;SDS011;21205;37.378;127.098;2023-03-13T10:25:43;4.45;;;1.60;;
35010;SDS011;21205;37.378;127.098;2023-03-13T10:28:14;2.28;;;1.23;;
35010;SDS011;21205;37.378;127.098;2023-03-13T10:30:48;3.90;;;1.40;;
35010;SDS011;21205;37.378;127.098;2023-03-13T10:33:22;4.22;;;1.45;;
35010;SDS011;21205;37.378;127.098;2023-03-13T10:36:04;4.32;;;1.40;;
35010;SDS011;21205;37.378;127.098;2023-03-13T10:38:46;4.82;;;1.50;;
35010;SDS011;21205;37.378;127.098;2023-03-13T10:41:19;4.43;;;1.48;;
35010;SDS011;21205;37.378;127.098;2023-03-13T10:43:54;2.63;;;1.42;;
35010;SDS011;21205;37.378;127.098;2023-03-13T10:46:53;3.33;;;1.50;;
35010;SDS011;21205;37.378;127.098;2023-03-13T10:49:28;4.35;;;1.90;;
35010;SDS011;21205;37.378;127.098;2023-03-13T10:52:00;1.90;;;1.42;;
35010;SDS011;21205;37.378;127.098;2023-03-13T10:54:33;2.08;;;1.30;;
35010;SDS011;21205;37.378;127.098;2023-03-13T10:59:51;2.08;;;1.50;;
35010;SDS011;21205;37.378;127.098;2023-03-13T11:02:24;4.80;;;1.50;;
35010;SDS011;21205;37.378;127.098;2023-03-13T11:05:00;3.72;;;1.50;;
35010;SDS011;21205;37.378;127.098;2023-03-13T11:07:34;2.60;;;1.70;;
35010;SDS011;21205;37.378;127.098;2023-03-13T11:10:17;2.17;;;1.33;;
35010;SDS011;21205;37.378;127.098;2023-03-13T11:12:49;1.77;;;1.52;;
35010;SDS011;21205;37.378;127.098;2023-03-13T11:15:22;2.47;;;1.40;;
35010;SDS011;21205;37.378;127.098;2023-03-13T11:18:00;4.32;;;1.90;;
35010;SDS011;21205;37.378;127.098;2023-03-13T11:20:36;2.28;;;1.60;;
35010;SDS011;21205;37.378;127.098;2023-03-13T11:29:51;3.80;;;1.65;;
35010;SDS011;21205;37.378;127.098;2023-03-13T11:31:56;1.98;;;1.40;;
35010;SDS011;21205;37.378;127.098;2023-03-13T11:34:36;2.55;;;1.60;;
35010;SDS011;21205;37.378;127.098;2023-03-13T11:37:14;1.92;;;1.35;;
35010;SDS011;21205;37.378;127.098;2023-03-13T11:50:54;2.45;;;1.55;;
35010;SDS011;21205;37.378;127.098;2023-03-13T11:56:42;3.33;;;1.50;;
35010;SDS011;21205;37.378;127.098;2023-03-13T12:01:56;3.30;;;1.75;;
35010;SDS011;21205;37.378;127.098;2023-03-13T12:04:51;5.10;;;1.60;;
35010;SDS011;21205;37.378;127.098;2023-03-13T12:07:40;4.30;;;1.63;;
35010;SDS011;21205;37.378;127.098;2023-03-13T12:10:24;3.88;;;2.28;;
35010;SDS011;21205;37.378;127.098;2023-03-13T12:13:21;4.53;;;1.75;;
35010;SDS011;21205;37.378;127.098;2023-03-13T12:16:11;2.63;;;1.90;;
35010;SDS011;21205;37.378;127.098;2023-03-13T12:18:47;7.35;;;1.60;;
35010;SDS011;21205;37.378;127.098;2023-03-13T12:21:20;3.05;;;1.70;;
35010;SDS011;21205;37.378;127.098;2023-03-13T12:29:26;3.13;;;1.85;;
35010;SDS011;21205;37.378;127.098;2023-03-13T12:32:00;5.80;;;1.73;;
35010;SDS011;21205;37.378;127.098;2023-03-13T12:34:45;2.58;;;1.73;;
35010;SDS011;21205;37.378;127.098;2023-03-13T12:43:32;3.40;;;1.70;;
35010;SDS011;21205;37.378;127.098;2023-03-13T12:52:18;2.40;;;1.58;;
35010;SDS011;21205;37.378;127.098;2023-03-13T13:00:17;5.18;;;2.13;;
35010;SDS011;21205;37.378;127.098;2023-03-13T13:03:05;3.20;;;1.92;;
35010;SDS011;21205;37.378;127.098;2023-03-13T13:08:39;7.38;;;2.15;;
35010;SDS011;21205;37.378;127.098;2023-03-13T13:25:36;3.28;;;1.83;;
35010;SDS011;21205;37.378;127.098;2023-03-13T13:28:31;4.90;;;1.55;;
35010;SDS011;21205;37.378;127.098;2023-03-13T13:31:01;4.72;;;1.75;;
35010;SDS011;21205;37.378;127.098;2023-03-13T13:37:04;2.88;;;1.63;;
35010;SDS011;21205;37.378;127.098;2023-03-13T13:39:52;6.45;;;2.03;;
35010;SDS011;21205;37.378;127.098;2023-03-13T13:47:32;7.72;;;1.92;;
35010;SDS011;21205;37.378;127.098;2023-03-13T13:50:02;3.97;;;1.73;;
35010;SDS011;21205;37.378;127.098;2023-03-13T13:52:44;2.33;;;1.85;;
35010;SDS011;21205;37.378;127.098;2023-03-13T13:58:39;2.38;;;1.65;;
35010;SDS011;21205;37.378;127.098;2023-03-13T14:03:30;2.45;;;1.60;;
35010;SDS011;21205;37.378;127.098;2023-03-13T14:06:02;3.47;;;1.98;;
35010;SDS011;21205;37.378;127.098;2023-03-13T14:08:44;3.85;;;1.75;;
35010;SDS011;21205;37.378;127.098;2023-03-13T14:16:47;4.22;;;1.70;;
35010;SDS011;21205;37.378;127.098;2023-03-13T14:19:26;5.63;;;2.10;;
35010;SDS011;21205;37.378;127.098;2023-03-13T14:22:05;4.53;;;2.40;;
35010;SDS011;21205;37.378;127.098;2023-03-13T14:24:36;3.97;;;1.60;;
35010;SDS011;21205;37.378;127.098;2023-03-13T14:27:16;3.65;;;1.88;;
35010;SDS011;21205;37.378;127.098;2023-03-13T14:30:01;4.80;;;2.17;;
35010;SDS011;21205;37.378;127.098;2023-03-13T14:32:33;4.93;;;1.60;;
35010;SDS011;21205;37.378;127.098;2023-03-13T14:35:04;3.10;;;1.90;;
35010;SDS011;21205;37.378;127.098;2023-03-13T14:37:35;5.65;;;2.05;;
35010;SDS011;21205;37.378;127.098;2023-03-13T14:40:26;2.53;;;1.70;;
35010;SDS011;21205;37.378;127.098;2023-03-13T14:42:58;3.70;;;1.85;;
35010;SDS011;21205;37.378;127.098;2023-03-13T14:45:33;5.72;;;2.10;;
35010;SDS011;21205;37.378;127.098;2023-03-13T14:50:45;5.93;;;2.40;;
35010;SDS011;21205;37.378;127.098;2023-03-13T14:53:20;3.30;;;1.67;;
35010;SDS011;21205;37.378;127.098;2023-03-13T14:56:07;5.35;;;2.25;;
35010;SDS011;21205;37.378;127.098;2023-03-13T14:58:40;3.55;;;2.10;;
35010;SDS011;21205;37.378;127.098;2023-03-13T15:01:23;3.78;;;2.20;;
35010;SDS011;21205;37.378;127.098;2023-03-13T15:03:55;3.15;;;1.83;;
35010;SDS011;21205;37.378;127.098;2023-03-13T15:06:25;2.88;;;1.92;;
35010;SDS011;21205;37.378;127.098;2023-03-13T15:12:00;3.67;;;2.22;;
35010;SDS011;21205;37.378;127.098;2023-03-13T15:14:36;4.90;;;2.38;;
35010;SDS011;21205;37.378;127.098;2023-03-13T15:17:12;3.42;;;2.10;;
35010;SDS011;21205;37.378;127.098;2023-03-13T15:19:46;4.93;;;1.70;;
35010;SDS011;21205;37.378;127.098;2023-03-13T15:22:26;3.80;;;2.03;;
35010;SDS011;21205;37.378;127.098;2023-03-13T15:24:58;4.90;;;2.38;;
35010;SDS011;21205;37.378;127.098;2023-03-13T15:27:32;3.10;;;2.10;;
35010;SDS011;21205;37.378;127.098;2023-03-13T15:30:02;3.58;;;2.10;;
35010;SDS011;21205;37.378;127.098;2023-03-13T15:32:33;3.67;;;1.80;;
35010;SDS011;21205;37.378;127.098;2023-03-13T15:35:10;4.95;;;2.17;;
35010;SDS011;21205;37.378;127.098;2023-03-13T15:37:55;3.67;;;2.15;;
35010;SDS011;21205;37.378;127.098;2023-03-13T15:40:27;5.20;;;2.13;;
35010;SDS011;21205;37.378;127.098;2023-03-13T15:42:58;3.17;;;1.83;;
35010;SDS011;21205;37.378;127.098;2023-03-13T15:45:27;3.67;;;1.95;;
35010;SDS011;21205;37.378;127.098;2023-03-13T15:47:59;6.50;;;2.17;;
35010;SDS011;21205;37.378;127.098;2023-03-13T15:50:28;4.55;;;2.30;;
35010;SDS011;21205;37.378;127.098;2023-03-13T15:52:58;7.38;;;2.20;;
35010;SDS011;21205;37.378;127.098;2023-03-13T15:55:28;5.45;;;2.30;;
35010;SDS011;21205;37.378;127.098;2023-03-13T15:57:58;3.33;;;2.03;;
35010;SDS011;21205;37.378;127.098;2023-03-13T16:00:28;5.28;;;2.67;;
35010;SDS011;21205;37.378;127.098;2023-03-13T16:02:57;2.95;;;2.13;;
35010;SDS011;21205;37.378;127.098;2023-03-13T16:05:27;4.00;;;2.13;;
35010;SDS011;21205;37.378;127.098;2023-03-13T16:07:57;7.10;;;2.17;;
35010;SDS011;21205;37.378;127.098;2023-03-13T16:10:27;3.55;;;2.13;;
35010;SDS011;21205;37.378;127.098;2023-03-13T16:12:59;4.80;;;2.08;;
35010;SDS011;21205;37.378;127.098;2023-03-13T16:15:30;4.63;;;2.13;;
35010;SDS011;21205;37.378;127.098;2023-03-13T16:18:00;4.47;;;2.13;;
35010;SDS011;21205;37.378;127.098;2023-03-13T16:20:30;4.22;;;2.08;;
35010;SDS011;21205;37.378;127.098;2023-03-13T16:23:01;6.50;;;2.03;;
35010;SDS011;21205;37.378;127.098;2023-03-13T16:25:31;3.80;;;2.22;;
35010;SDS011;21205;37.378;127.098;2023-03-13T16:28:00;4.90;;;2.08;;
35010;SDS011;21205;37.378;127.098;2023-03-13T16:30:30;5.60;;;1.95;;
35010;SDS011;21205;37.378;127.098;2023-03-13T16:33:02;4.53;;;2.10;;
35010;SDS011;21205;37.378;127.098;2023-03-13T16:35:31;4.40;;;2.28;;
35010;SDS011;21205;37.378;127.098;2023-03-13T16:38:01;4.15;;;2.20;;
35010;SDS011;21205;37.378;127.098;2023-03-13T16:40:32;6.05;;;2.08;;
35010;SDS011;21205;37.378;127.098;2023-03-13T16:43:02;5.60;;;2.08;;
35010;SDS011;21205;37.378;127.098;2023-03-13T16:45:32;4.32;;;1.92;;
35010;SDS011;21205;37.378;127.098;2023-03-13T16:48:01;5.22;;;2.22;;
35010;SDS011;21205;37.378;127.098;2023-03-13T16:50:32;3.05;;;2.00;;
35010;SDS011;21205;37.378;127.098;2023-03-13T16:53:05;3.88;;;1.95;;
35010;SDS011;21205;37.378;127.098;2023-03-13T16:55:35;6.78;;;2.20;;
35010;SDS011;21205;37.378;127.098;2023-03-13T16:58:04;3.08;;;1.92;;
35010;SDS011;21205;37.378;127.098;2023-03-13T17:00:34;4.80;;;2.20;;
35010;SDS011;21205;37.378;127.098;2023-03-13T17:03:04;3.97;;;2.30;;
35010;SDS011;21205;37.378;127.098;2023-03-13T17:05:34;4.18;;;2.40;;
35010;SDS011;21205;37.378;127.098;2023-03-13T17:08:03;5.57;;;2.38;;
35010;SDS011;21205;37.378;127.098;2023-03-13T17:10:33;4.22;;;2.47;;
35010;SDS011;21205;37.378;127.098;2023-03-13T17:13:03;3.85;;;2.22;;
35010;SDS011;21205;37.378;127.098;2023-03-13T17:15:33;3.72;;;2.10;;
35010;SDS011;21205;37.378;127.098;2023-03-13T17:18:03;3.13;;;2.05;;
35010;SDS011;21205;37.378;127.098;2023-03-13T17:20:33;5.00;;;2.50;;
35010;SDS011;21205;37.378;127.098;2023-03-13T17:23:03;4.47;;;2.05;;
35010;SDS011;21205;37.378;127.098;2023-03-13T17:25:32;2.67;;;1.80;;
35010;SDS011;21205;37.378;127.098;2023-03-13T17:28:02;4.28;;;2.20;;
35010;SDS011;21205;37.378;127.098;2023-03-13T17:30:32;5.32;;;2.40;;
35010;SDS011;21205;37.378;127.098;2023-03-13T17:33:02;2.20;;;1.75;;
35010;SDS011;21205;37.378;127.098;2023-03-13T17:35:31;3.30;;;1.67;;
35010;SDS011;21205;37.378;127.098;2023-03-13T17:38:01;4.63;;;2.17;;
35010;SDS011;21205;37.378;127.098;2023-03-13T17:40:30;3.08;;;1.80;;
35010;SDS011;21205;37.378;127.098;2023-03-13T17:43:02;4.70;;;1.85;;
35010;SDS011;21205;37.378;127.098;2023-03-13T17:45:32;6.30;;;2.33;;
35010;SDS011;21205;37.378;127.098;2023-03-13T17:48:04;4.72;;;2.17;;
35010;SDS011;21205;37.378;127.098;2023-03-13T17:50:39;3.33;;;2.03;;
35010;SDS011;21205;37.378;127.098;2023-03-13T17:53:08;2.72;;;1.98;;
35010;SDS011;21205;37.378;127.098;2023-03-13T17:55:38;5.72;;;1.90;;
35010;SDS011;21205;37.378;127.098;2023-03-13T17:58:08;3.95;;;2.40;;
35010;SDS011;21205;37.378;127.098;2023-03-13T18:00:37;4.72;;;2.53;;
35010;SDS011;21205;37.378;127.098;2023-03-13T18:03:12;3.85;;;1.80;;
35010;SDS011;21205;37.378;127.098;2023-03-13T18:05:41;3.97;;;2.22;;
35010;SDS011;21205;37.378;127.098;2023-03-13T18:08:11;4.00;;;2.20;;
35010;SDS011;21205;37.378;127.098;2023-03-13T18:10:40;4.10;;;2.15;;
35010;SDS011;21205;37.378;127.098;2023-03-13T18:13:10;2.40;;;1.60;;
35010;SDS011;21205;37.378;127.098;2023-03-13T18:15:40;4.20;;;1.90;;
35010;SDS011;21205;37.378;127.098;2023-03-13T18:18:15;5.07;;;2.08;;
35010;SDS011;21205;37.378;127.098;2023-03-13T18:20:45;4.45;;;2.17;;
35010;SDS011;21205;37.378;127.098;2023-03-13T18:23:15;7.05;;;2.25;;
35010;SDS011;21205;37.378;127.098;2023-03-13T18:25:44;3.30;;;2.15;;
35010;SDS011;21205;37.378;127.098;2023-03-13T18:28:14;4.65;;;2.20;;